sensor_id;sensor_type;location;lat;lon;timestamp;pressure;altitude;pressure_sealevel;temperature;humidity
10060;BME280;5069;49.306;8.636;2023-04-07T00:00:56;100548.84;;;8.68;100.00
10060;BME280;5069;49.306;8.636;2023-04-07T00:03:58;100550.63;;;8.66;100.00
10060;BME280;5069;49.306;8.636;2023-04-07T00:07:00;100547.09;;;8.69;100.00
10060;BME280;5069;49.306;8.636;2023-04-07T00:10:01;100541.72;;;8.74;100.00
10060;BME280;5069;49.306;8.636;2023-04-07T00:13:03;100540.22;;;8.63;100.00
10060;BME280;5069;49.306;8.636;2023-04-07T00:16:05;100541.13;;;8.61;100.00
10060;BME280;5069;49.306;8.636;2023-04-07T00:19:06;100540.22;;;8.63;100.00
10060;BME280;5069;49.306;8.636;2023-04-07T00:22:08;100533.06;;;8.68;100.00
10060;BME280;5069;49.306;8.636;2023-04-07T00:25:09;100526.19;;;8.64;100.00
10060;BME280;5069;49.306;8.636;2023-04-07T00:28:11;100526.97;;;8.68;100.00
10060;BME280;5069;49.306;8.636;2023-04-07T00:31:12;100513.94;;;8.63;100.00
10060;BME280;5069;49.306;8.636;2023-04-07T00:34:14;100514.72;;;8.67;100.00
10060;BME280;5069;49.306;8.636;2023-04-07T00:37:16;100503.41;;;8.63;100.00
10060;BME280;5069;49.306;8.636;2023-04-07T00:40:17;100502.78;;;8.54;100.00
10060;BME280;5069;49.306;8.636;2023-04-07T00:43:19;100497.69;;;8.46;100.00
10060;BME280;5069;49.306;8.636;2023-04-07T00:46:21;100495.91;;;8.48;100.00
10060;BME280;5069;49.306;8.636;2023-04-07T00:49:24;100488.72;;;8.55;100.00
10060;BME280;5069;49.306;8.636;2023-04-07T00:52:26;100486.06;;;8.56;100.00
10060;BME280;5069;49.306;8.636;2023-04-07T00:55:30;100487.03;;;8.52;100.00
10060;BME280;5069;49.306;8.636;2023-04-07T00:58:31;100484.41;;;8.52;100.00
10060;BME280;5069;49.306;8.636;2023-04-07T01:02:09;100479.16;;;8.52;100.00
10060;BME280;5069;49.306;8.636;2023-04-07T01:05:17;100479.22;;;8.49;100.00
10060;BME280;5069;49.306;8.636;2023-04-07T01:08:50;100470.53;;;8.47;100.00
10060;BME280;5069;49.306;8.636;2023-04-07T01:11:59;100470.44;;;8.50;100.00
10060;BME280;5069;49.306;8.636;2023-04-07T01:15:10;100466.16;;;8.48;100.00
10060;BME280;5069;49.306;8.636;2023-04-07T01:18:25;100467.03;;;8.47;100.00
10060;BME280;5069;49.306;8.636;2023-04-07T01:21:32;100455.53;;;8.52;100.00
10060;BME280;5069;49.306;8.636;2023-04-07T01:31:04;100449.41;;;8.52;100.00
10060;BME280;5069;49.306;8.636;2023-04-07T01:34:11;100459.00;;;8.53;100.00
10060;BME280;5069;49.306;8.636;2023-04-07T01:37:14;100452.91;;;8.52;100.00
10060;BME280;5069;49.306;8.636;2023-04-07T01:40:17;100445.13;;;8.48;100.00
10060;BME280;5069;49.306;8.636;2023-04-07T01:43:19;100447.78;;;8.46;100.00
10060;BME280;5069;49.306;8.636;2023-04-07T01:46:21;100438.88;;;8.53;100.00
10060;BME280;5069;49.306;8.636;2023-04-07T01:49:24;100443.16;;;8.56;100.00
10060;BME280;5069;49.306;8.636;2023-04-07T01:52:26;100436.28;;;8.50;100.00
10060;BME280;5069;49.306;8.636;2023-04-07T01:55:28;100436.97;;;8.58;100.00
10060;BME280;5069;49.306;8.636;2023-04-07T01:58:42;100442.25;;;8.58;100.00
10060;BME280;5069;49.306;8.636;2023-04-07T02:01:47;100425.75;;;8.52;100.00
10060;BME280;5069;49.306;8.636;2023-04-07T02:04:57;100431.72;;;8.58;100.00
10060;BME280;5069;49.306;8.636;2023-04-07T02:08:03;100430.28;;;8.45;100.00
10060;BME280;5069;49.306;8.636;2023-04-07T02:11:09;100433.75;;;8.47;100.00
10060;BME280;5069;49.306;8.636;2023-04-07T02:14:12;100426.75;;;8.48;100.00
10060;BME280;5069;49.306;8.636;2023-04-07T02:17:32;100430.91;;;8.55;100.00
10060;BME280;5069;49.306;8.636;2023-04-07T02:20:35;100426.63;;;8.52;100.00
10060;BME280;5069;49.306;8.636;2023-04-07T02:23:37;100423.00;;;8.56;100.00
10060;BME280;5069;49.306;8.636;2023-04-07T02:26:41;100421.38;;;8.52;100.00
10060;BME280;5069;49.306;8.636;2023-04-07T02:29:43;100420.50;;;8.52;100.00
10060;BME280;5069;49.306;8.636;2023-04-07T02:32:44;100416.25;;;8.46;100.00
10060;BME280;5069;49.306;8.636;2023-04-07T02:35:47;100414.47;;;8.48;100.00
10060;BME280;5069;49.306;8.636;2023-04-07T02:38:49;100417.25;;;8.42;100.00
10060;BME280;5069;49.306;8.636;2023-04-07T02:41:50;100412.69;;;8.49;100.00
10060;BME280;5069;49.306;8.636;2023-04-07T02:44:52;100411.00;;;8.46;100.00
10060;BME280;5069;49.306;8.636;2023-04-07T02:47:53;100407.50;;;8.47;100.00
10060;BME280;5069;49.306;8.636;2023-04-07T02:50:55;100403.19;;;8.43;100.00
10060;BME280;5069;49.306;8.636;2023-04-07T02:53:56;100409.41;;;8.39;100.00
10060;BME280;5069;49.306;8.636;2023-04-07T02:56:58;100407.69;;;8.38;100.00
10060;BME280;5069;49.306;8.636;2023-04-07T02:59:59;100398.16;;;8.36;100.00
10060;BME280;5069;49.306;8.636;2023-04-07T03:03:16;100398.91;;;8.39;100.00
10060;BME280;5069;49.306;8.636;2023-04-07T03:06:29;100398.06;;;8.39;100.00
10060;BME280;5069;49.306;8.636;2023-04-07T03:09:38;100390.16;;;8.40;100.00
10060;BME280;5069;49.306;8.636;2023-04-07T03:12:39;100395.41;;;8.40;100.00
10060;BME280;5069;49.306;8.636;2023-04-07T03:15:41;100386.69;;;8.38;100.00
10060;BME280;5069;49.306;8.636;2023-04-07T03:18:44;100383.25;;;8.36;100.00
10060;BME280;5069;49.306;8.636;2023-04-07T03:21:47;100384.84;;;8.42;100.00
10060;BME280;5069;49.306;8.636;2023-04-07T03:24:48;100375.13;;;8.45;100.00
10060;BME280;5069;49.306;8.636;2023-04-07T03:27:51;100378.59;;;8.47;100.00
10060;BME280;5069;49.306;8.636;2023-04-07T03:30:53;100379.53;;;8.43;100.00
10060;BME280;5069;49.306;8.636;2023-04-07T03:33:55;100373.47;;;8.43;100.00
10060;BME280;5069;49.306;8.636;2023-04-07T03:36:57;100375.09;;;8.47;100.00
10060;BME280;5069;49.306;8.636;2023-04-07T03:39:58;100371.56;;;8.48;100.00
10060;BME280;5069;49.306;8.636;2023-04-07T03:43:05;100377.75;;;8.45;100.00
10060;BME280;5069;49.306;8.636;2023-04-07T03:46:12;100374.38;;;8.40;100.00
10060;BME280;5069;49.306;8.636;2023-04-07T03:49:14;100380.47;;;8.42;100.00
10060;BME280;5069;49.306;8.636;2023-04-07T03:52:16;100372.50;;;8.45;100.00
10060;BME280;5069;49.306;8.636;2023-04-07T03:55:21;100371.75;;;8.40;100.00
10060;BME280;5069;49.306;8.636;2023-04-07T03:58:26;100364.63;;;8.45;100.00
10060;BME280;5069;49.306;8.636;2023-04-07T04:01:28;100365.47;;;8.47;100.00
10060;BME280;5069;49.306;8.636;2023-04-07T04:04:31;100368.13;;;8.46;100.00
10060;BME280;5069;49.306;8.636;2023-04-07T04:07:34;100370.84;;;8.43;100.00
10060;BME280;5069;49.306;8.636;2023-04-07T04:10:39;100380.50;;;8.41;100.00
10060;BME280;5069;49.306;8.636;2023-04-07T04:13:40;100374.38;;;8.40;100.00
10060;BME280;5069;49.306;8.636;2023-04-07T04:16:42;100374.25;;;8.45;100.00
10060;BME280;5069;49.306;8.636;2023-04-07T04:19:57;100373.47;;;8.43;100.00
10060;BME280;5069;49.306;8.636;2023-04-07T04:23:10;100384.00;;;8.41;100.00
10060;BME280;5069;49.306;8.636;2023-04-07T04:26:11;100375.47;;;8.32;100.00
10060;BME280;5069;49.306;8.636;2023-04-07T04:29:15;100379.78;;;8.34;100.00
10060;BME280;5069;49.306;8.636;2023-04-07T04:32:18;100391.00;;;8.41;100.00
10060;BME280;5069;49.306;8.636;2023-04-07T04:35:19;100385.66;;;8.44;100.00
10060;BME280;5069;49.306;8.636;2023-04-07T04:38:35;100384.81;;;8.43;100.00
10060;BME280;5069;49.306;8.636;2023-04-07T04:41:44;100386.63;;;8.41;100.00
10060;BME280;5069;49.306;8.636;2023-04-07T04:44:45;100383.09;;;8.42;100.00
10060;BME280;5069;49.306;8.636;2023-04-07T04:47:48;100380.53;;;8.39;100.00
10060;BME280;5069;49.306;8.636;2023-04-07T04:50:50;100386.38;;;8.50;100.00
10060;BME280;5069;49.306;8.636;2023-04-07T04:53:52;100389.09;;;8.47;100.00
10060;BME280;5069;49.306;8.636;2023-04-07T04:56:56;100390.13;;;8.42;100.00
10060;BME280;5069;49.306;8.636;2023-04-07T04:59:58;100390.16;;;8.40;100.00
10060;BME280;5069;49.306;8.636;2023-04-07T05:03:00;100387.53;;;8.39;100.00
10060;BME280;5069;49.306;8.636;2023-04-07T05:06:07;100386.63;;;8.41;100.00
10060;BME280;5069;49.306;8.636;2023-04-07T05:09:08;100386.66;;;8.40;100.00
10060;BME280;5069;49.306;8.636;2023-04-07T05:12:17;100399.66;;;8.44;100.00
10060;BME280;5069;49.306;8.636;2023-04-07T05:15:23;100391.78;;;8.44;100.00
10060;BME280;5069;49.306;8.636;2023-04-07T05:18:24;100392.59;;;8.48;100.00
10060;BME280;5069;49.306;8.636;2023-04-07T05:21:27;100391.03;;;8.39;100.00
10060;BME280;5069;49.306;8.636;2023-04-07T05:24:32;100390.16;;;8.39;100.00
10060;BME280;5069;49.306;8.636;2023-04-07T05:27:34;100382.34;;;8.37;100.00
10060;BME280;5069;49.306;8.636;2023-04-07T05:30:43;100383.38;;;8.28;100.00
10060;BME280;5069;49.306;8.636;2023-04-07T05:33:44;100378.22;;;8.25;100.00
10060;BME280;5069;49.306;8.636;2023-04-07T05:36:49;100383.56;;;8.21;100.00
10060;BME280;5069;49.306;8.636;2023-04-07T05:39:51;100386.13;;;8.24;100.00
10060;BME280;5069;49.306;8.636;2023-04-07T05:42:52;100386.13;;;8.24;100.00
10060;BME280;5069;49.306;8.636;2023-04-07T05:45:54;100388.81;;;8.21;100.00
10060;BME280;5069;49.306;8.636;2023-04-07T05:48:56;100385.31;;;8.22;100.00
10060;BME280;5069;49.306;8.636;2023-04-07T05:52:03;100384.41;;;8.23;100.00
10060;BME280;5069;49.306;8.636;2023-04-07T05:55:09;100385.31;;;8.22;100.00
10060;BME280;5069;49.306;8.636;2023-04-07T05:58:11;100393.81;;;8.33;100.00
10060;BME280;5069;49.306;8.636;2023-04-07T06:01:15;100391.94;;;8.38;100.00
10060;BME280;5069;49.306;8.636;2023-04-07T06:04:16;100397.13;;;8.41;100.00
10060;BME280;5069;49.306;8.636;2023-04-07T06:07:21;100387.22;;;8.52;100.00
10060;BME280;5069;49.306;8.636;2023-04-07T06:10:23;100390.47;;;8.62;100.00
10060;BME280;5069;49.306;8.636;2023-04-07T06:13:24;100395.59;;;8.66;100.00
10060;BME280;5069;49.306;8.636;2023-04-07T06:16:26;100396.16;;;8.78;100.00
10060;BME280;5069;49.306;8.636;2023-04-07T06:19:28;100393.19;;;8.91;100.00
10060;BME280;5069;49.306;8.636;2023-04-07T06:22:29;100391.09;;;9.04;100.00
10060;BME280;5069;49.306;8.636;2023-04-07T06:25:31;100393.56;;;9.10;100.00
10060;BME280;5069;49.306;8.636;2023-04-07T06:28:34;100382.59;;;9.25;100.00
10060;BME280;5069;49.306;8.636;2023-04-07T06:31:36;100381.41;;;9.37;100.00
10060;BME280;5069;49.306;8.636;2023-04-07T06:34:38;100380.22;;;9.47;100.00
10060;BME280;5069;49.306;8.636;2023-04-07T06:37:39;100390.59;;;9.51;100.00
10060;BME280;5069;49.306;8.636;2023-04-07T06:40:41;100386.38;;;9.46;100.00
10060;BME280;5069;49.306;8.636;2023-04-07T06:43:43;100379.34;;;9.46;100.00
10060;BME280;5069;49.306;8.636;2023-04-07T06:46:45;100378.19;;;9.57;100.00
10060;BME280;5069;49.306;8.636;2023-04-07T06:49:49;100377.25;;;9.58;100.00
10060;BME280;5069;49.306;8.636;2023-04-07T06:52:51;100380.72;;;9.60;100.00
10060;BME280;5069;49.306;8.636;2023-04-07T06:56:06;100374.28;;;9.70;100.00
10060;BME280;5069;49.306;8.636;2023-04-07T06:59:08;100370.97;;;9.91;100.00
10060;BME280;5069;49.306;8.636;2023-04-07T07:02:09;100372.47;;;10.00;100.00
10060;BME280;5069;49.306;8.636;2023-04-07T07:05:11;100371.88;;;10.19;100.00
10060;BME280;5069;49.306;8.636;2023-04-07T07:08:13;100380.19;;;10.33;100.00
10060;BME280;5069;49.306;8.636;2023-04-07T07:11:14;100367.94;;;10.31;100.00
10060;BME280;5069;49.306;8.636;2023-04-07T07:14:15;100378.97;;;10.44;100.00
10060;BME280;5069;49.306;8.636;2023-04-07T07:17:17;100378.88;;;10.47;100.00
10060;BME280;5069;49.306;8.636;2023-04-07T07:20:18;100367.72;;;10.65;100.00
10060;BME280;5069;49.306;8.636;2023-04-07T07:23:20;100373.41;;;10.77;99.91
10060;BME280;5069;49.306;8.636;2023-04-07T07:26:21;100366.97;;;10.86;98.76
10060;BME280;5069;49.306;8.636;2023-04-07T07:29:22;100369.69;;;11.08;95.77
10060;BME280;5069;49.306;8.636;2023-04-07T07:32:24;100368.47;;;11.16;96.41
10060;BME280;5069;49.306;8.636;2023-04-07T07:35:26;100366.09;;;11.10;96.20
10060;BME280;5069;49.306;8.636;2023-04-07T07:38:27;100367.91;;;11.08;98.66
10060;BME280;5069;49.306;8.636;2023-04-07T07:41:28;100363.81;;;11.25;99.28
10060;BME280;5069;49.306;8.636;2023-04-07T07:44:31;100372.41;;;11.53;97.04
10060;BME280;5069;49.306;8.636;2023-04-07T07:47:32;100371.28;;;11.60;89.81
10060;BME280;5069;49.306;8.636;2023-04-07T07:50:34;100381.81;;;11.60;88.59
10060;BME280;5069;49.306;8.636;2023-04-07T07:53:35;100371.50;;;11.54;86.88
10060;BME280;5069;49.306;8.636;2023-04-07T07:56:37;100376.88;;;11.51;88.02
10060;BME280;5069;49.306;8.636;2023-04-07T07:59:38;100378.38;;;11.58;89.55
10060;BME280;5069;49.306;8.636;2023-04-07T08:02:42;100381.59;;;11.66;87.77
10060;BME280;5069;49.306;8.636;2023-04-07T08:05:44;100384.25;;;11.89;85.61
10060;BME280;5069;49.306;8.636;2023-04-07T08:08:46;100378.09;;;12.11;85.71
10060;BME280;5069;49.306;8.636;2023-04-07T08:11:47;100384.25;;;12.33;83.36
10060;BME280;5069;49.306;8.636;2023-04-07T08:14:49;100384.75;;;11.99;80.22
10060;BME280;5069;49.306;8.636;2023-04-07T08:17:50;100385.50;;;12.24;80.90
10060;BME280;5069;49.306;8.636;2023-04-07T08:20:55;100388.66;;;12.32;81.98
10060;BME280;5069;49.306;8.636;2023-04-07T08:23:57;100389.56;;;12.53;81.90
10060;BME280;5069;49.306;8.636;2023-04-07T08:26:59;100390.72;;;12.68;80.15
10060;BME280;5069;49.306;8.636;2023-04-07T08:30:04;100385.16;;;12.74;79.01
10060;BME280;5069;49.306;8.636;2023-04-07T08:33:07;100383.34;;;12.54;76.97
10060;BME280;5069;49.306;8.636;2023-04-07T08:36:08;100397.78;;;12.47;80.44
10060;BME280;5069;49.306;8.636;2023-04-07T08:39:10;100389.50;;;12.55;79.95
10060;BME280;5069;49.306;8.636;2023-04-07T08:42:11;100402.22;;;12.67;81.48
10060;BME280;5069;49.306;8.636;2023-04-07T08:45:16;100395.41;;;12.81;77.99
10060;BME280;5069;49.306;8.636;2023-04-07T08:48:22;100399.31;;;12.73;80.69
10060;BME280;5069;49.306;8.636;2023-04-07T08:51:29;100399.66;;;12.86;79.71
10060;BME280;5069;49.306;8.636;2023-04-07T08:54:31;100401.31;;;13.08;76.54
10060;BME280;5069;49.306;8.636;2023-04-07T08:57:35;100404.16;;;12.41;79.89
10060;BME280;5069;49.306;8.636;2023-04-07T09:00:39;100400.78;;;12.38;83.09
10060;BME280;5069;49.306;8.636;2023-04-07T09:03:47;100403.81;;;12.29;84.34
10060;BME280;5069;49.306;8.636;2023-04-07T09:06:49;100403.53;;;12.77;79.32
10060;BME280;5069;49.306;8.636;2023-04-07T09:09:51;100405.59;;;12.91;73.76
10060;BME280;5069;49.306;8.636;2023-04-07T09:12:52;100410.88;;;12.70;75.93
10060;BME280;5069;49.306;8.636;2023-04-07T09:15:54;100407.25;;;12.93;74.76
10060;BME280;5069;49.306;8.636;2023-04-07T09:18:57;100413.91;;;12.81;71.83
10060;BME280;5069;49.306;8.636;2023-04-07T09:21:58;100413.84;;;12.63;72.80
10060;BME280;5069;49.306;8.636;2023-04-07T09:25:11;100404.88;;;12.45;74.15
10060;BME280;5069;49.306;8.636;2023-04-07T09:28:13;100405.13;;;12.39;75.63
10060;BME280;5069;49.306;8.636;2023-04-07T09:31:14;100410.03;;;12.48;76.04
10060;BME280;5069;49.306;8.636;2023-04-07T09:34:27;100406.88;;;12.40;77.41
10060;BME280;5069;49.306;8.636;2023-04-07T09:37:29;100410.91;;;12.27;75.69
10060;BME280;5069;49.306;8.636;2023-04-07T09:40:31;100412.94;;;12.42;78.16
10060;BME280;5069;49.306;8.636;2023-04-07T09:43:38;100412.25;;;12.37;76.19
10060;BME280;5069;49.306;8.636;2023-04-07T09:46:57;100413.19;;;12.36;75.29
10060;BME280;5069;49.306;8.636;2023-04-07T09:49:58;100401.22;;;12.27;72.55
10060;BME280;5069;49.306;8.636;2023-04-07T09:53:06;100417.31;;;12.43;74.50
10060;BME280;5069;49.306;8.636;2023-04-07T09:56:12;100414.06;;;12.58;74.69
10060;BME280;5069;49.306;8.636;2023-04-07T09:59:15;100409.63;;;12.79;73.56
10060;BME280;5069;49.306;8.636;2023-04-07T10:02:16;100409.97;;;12.92;72.96
10060;BME280;5069;49.306;8.636;2023-04-07T10:05:18;100414.66;;;12.85;73.58
10060;BME280;5069;49.306;8.636;2023-04-07T10:08:22;100417.25;;;12.87;76.00
10060;BME280;5069;49.306;8.636;2023-04-07T10:11:24;100415.66;;;12.82;72.80
10060;BME280;5069;49.306;8.636;2023-04-07T10:14:30;100408.25;;;13.11;71.72
10060;BME280;5069;49.306;8.636;2023-04-07T10:17:32;100420.38;;;13.16;70.50
10060;BME280;5069;49.306;8.636;2023-04-07T10:20:39;100409.25;;;13.29;71.59
10060;BME280;5069;49.306;8.636;2023-04-07T10:23:55;100410.03;;;13.10;70.65
10060;BME280;5069;49.306;8.636;2023-04-07T10:27:03;100411.41;;;12.99;71.28
10060;BME280;5069;49.306;8.636;2023-04-07T10:30:06;100410.88;;;13.11;70.38
10060;BME280;5069;49.306;8.636;2023-04-07T10:33:12;100415.94;;;13.17;68.63
10060;BME280;5069;49.306;8.636;2023-04-07T10:36:13;100408.94;;;13.16;70.60
10060;BME280;5069;49.306;8.636;2023-04-07T10:39:19;100427.44;;;12.96;72.56
10060;BME280;5069;49.306;8.636;2023-04-07T10:49:10;100426.72;;;12.70;77.70
10060;BME280;5069;49.306;8.636;2023-04-07T10:55:32;100425.03;;;12.04;94.48
10060;BME280;5069;49.306;8.636;2023-04-07T10:58:34;100422.00;;;11.91;100.00
10060;BME280;5069;49.306;8.636;2023-04-07T11:01:37;100419.53;;;11.64;98.67
10060;BME280;5069;49.306;8.636;2023-04-07T11:04:41;100417.38;;;11.75;99.82
10060;BME280;5069;49.306;8.636;2023-04-07T11:07:48;100420.03;;;11.96;100.00
10060;BME280;5069;49.306;8.636;2023-04-07T11:10:50;100417.16;;;12.02;100.00
10060;BME280;5069;49.306;8.636;2023-04-07T11:13:52;100409.56;;;12.17;100.00
10060;BME280;5069;49.306;8.636;2023-04-07T11:16:53;100421.88;;;12.18;100.00
10060;BME280;5069;49.306;8.636;2023-04-07T11:19:55;100419.41;;;12.35;97.81
10060;BME280;5069;49.306;8.636;2023-04-07T11:22:59;100421.53;;;12.69;89.25
10060;BME280;5069;49.306;8.636;2023-04-07T11:26:01;100420.94;;;12.82;81.02
10060;BME280;5069;49.306;8.636;2023-04-07T11:29:03;100421.47;;;13.11;75.80
10060;BME280;5069;49.306;8.636;2023-04-07T11:32:05;100428.72;;;13.28;71.60
10060;BME280;5069;49.306;8.636;2023-04-07T11:35:07;100426.91;;;13.28;67.67
10060;BME280;5069;49.306;8.636;2023-04-07T11:38:09;100422.44;;;13.30;66.60
10060;BME280;5069;49.306;8.636;2023-04-07T11:41:12;100429.44;;;13.31;65.24
10060;BME280;5069;49.306;8.636;2023-04-07T11:44:14;100425.19;;;13.47;66.48
10060;BME280;5069;49.306;8.636;2023-04-07T11:47:16;100422.78;;;13.80;74.99
10060;BME280;5069;49.306;8.636;2023-04-07T11:50:37;100423.94;;;13.75;80.68
10060;BME280;5069;49.306;8.636;2023-04-07T11:53:39;100432.44;;;13.62;79.67
10060;BME280;5069;49.306;8.636;2023-04-07T11:56:43;100432.13;;;13.50;79.31
10060;BME280;5069;49.306;8.636;2023-04-07T11:59:45;100435.41;;;13.36;79.15
10060;BME280;5069;49.306;8.636;2023-04-07T12:02:47;100440.16;;;13.28;80.22
10060;BME280;5069;49.306;8.636;2023-04-07T12:05:49;100430.97;;;13.16;78.95
10060;BME280;5069;49.306;8.636;2023-04-07T12:08:51;100439.06;;;13.13;76.54
10060;BME280;5069;49.306;8.636;2023-04-07T12:11:52;100439.00;;;13.15;73.96
10060;BME280;5069;49.306;8.636;2023-04-07T12:14:54;100439.00;;;13.15;74.38
10060;BME280;5069;49.306;8.636;2023-04-07T12:17:56;100447.59;;;13.20;75.44
10060;BME280;5069;49.306;8.636;2023-04-07T12:20:58;100448.34;;;13.02;78.20
10060;BME280;5069;49.306;8.636;2023-04-07T12:23:59;100445.66;;;12.81;78.77
10060;BME280;5069;49.306;8.636;2023-04-07T12:27:01;100458.13;;;12.79;79.68
10060;BME280;5069;49.306;8.636;2023-04-07T12:30:03;100458.38;;;12.73;81.78
10060;BME280;5069;49.306;8.636;2023-04-07T12:33:05;100465.94;;;12.61;79.70
10060;BME280;5069;49.306;8.636;2023-04-07T12:36:07;100467.34;;;12.69;84.02
10060;BME280;5069;49.306;8.636;2023-04-07T12:39:08;100466.34;;;12.72;88.04
10060;BME280;5069;49.306;8.636;2023-04-07T12:42:09;100466.03;;;12.36;91.63
10060;BME280;5069;49.306;8.636;2023-04-07T12:45:12;100464.84;;;12.23;93.86
10060;BME280;5069;49.306;8.636;2023-04-07T12:48:13;100459.50;;;12.24;92.57
10060;BME280;5069;49.306;8.636;2023-04-07T12:51:16;100456.56;;;12.30;94.43
10060;BME280;5069;49.306;8.636;2023-04-07T12:54:18;100459.84;;;12.37;93.92
10060;BME280;5069;49.306;8.636;2023-04-07T12:57:19;100463.25;;;12.40;93.09
10060;BME280;5069;49.306;8.636;2023-04-07T13:00:21;100463.97;;;12.44;91.41
10060;BME280;5069;49.306;8.636;2023-04-07T13:03:22;100467.84;;;12.57;90.71
10060;BME280;5069;49.306;8.636;2023-04-07T13:06:24;100464.34;;;12.57;89.55
10060;BME280;5069;49.306;8.636;2023-04-07T13:09:25;100469.75;;;12.75;85.45
10060;BME280;5069;49.306;8.636;2023-04-07T13:12:27;100467.78;;;12.80;84.45
10060;BME280;5069;49.306;8.636;2023-04-07T13:15:28;100467.44;;;12.88;82.76
10060;BME280;5069;49.306;8.636;2023-04-07T13:18:30;100465.00;;;12.83;78.36
10060;BME280;5069;49.306;8.636;2023-04-07T13:21:31;100466.31;;;12.73;75.94
10060;BME280;5069;49.306;8.636;2023-04-07T13:24:35;100471.19;;;12.82;76.65
10060;BME280;5069;49.306;8.636;2023-04-07T13:27:38;100472.44;;;12.74;75.19
10060;BME280;5069;49.306;8.636;2023-04-07T13:30:39;100466.72;;;12.84;77.52
10060;BME280;5069;49.306;8.636;2023-04-07T13:33:41;100471.88;;;12.88;77.90
10060;BME280;5069;49.306;8.636;2023-04-07T13:36:43;100470.28;;;12.83;81.67
10060;BME280;5069;49.306;8.636;2023-04-07T13:39:44;100468.28;;;12.89;83.23
10060;BME280;5069;49.306;8.636;2023-04-07T13:42:46;100467.34;;;12.69;84.16
10060;BME280;5069;49.306;8.636;2023-04-07T13:45:47;100458.75;;;12.64;84.02
10060;BME280;5069;49.306;8.636;2023-04-07T13:48:49;100463.66;;;12.73;82.74
10060;BME280;5069;49.306;8.636;2023-04-07T13:51:51;100466.41;;;12.70;81.08
10060;BME280;5069;49.306;8.636;2023-04-07T13:54:53;100466.75;;;12.63;79.96
10060;BME280;5069;49.306;8.636;2023-04-07T13:57:54;100465.31;;;12.54;78.54
10060;BME280;5069;49.306;8.636;2023-04-07T14:00:56;100469.94;;;12.49;81.51
10060;BME280;5069;49.306;8.636;2023-04-07T14:03:57;100460.94;;;12.53;81.68
10060;BME280;5069;49.306;8.636;2023-04-07T14:07:01;100463.00;;;12.68;81.93
10060;BME280;5069;49.306;8.636;2023-04-07T14:10:04;100461.00;;;12.73;81.29
10060;BME280;5069;49.306;8.636;2023-04-07T14:13:05;100467.31;;;12.91;79.96
10060;BME280;5069;49.306;8.636;2023-04-07T14:16:07;100472.06;;;13.25;82.00
10060;BME280;5069;49.306;8.636;2023-04-07T14:19:08;100474.91;;;13.80;78.08
10060;BME280;5069;49.306;8.636;2023-04-07T14:22:10;100457.19;;;14.38;71.09
10060;BME280;5069;49.306;8.636;2023-04-07T14:25:11;100463.13;;;14.96;70.62
10060;BME280;5069;49.306;8.636;2023-04-07T14:28:13;100466.84;;;14.20;72.64
10060;BME280;5069;49.306;8.636;2023-04-07T14:31:15;100469.50;;;13.83;74.23
10060;BME280;5069;49.306;8.636;2023-04-07T14:34:16;100463.13;;;13.48;76.30
10060;BME280;5069;49.306;8.636;2023-04-07T14:37:17;100469.88;;;13.74;74.96
10060;BME280;5069;49.306;8.636;2023-04-07T14:40:24;100469.41;;;13.45;74.42
10060;BME280;5069;49.306;8.636;2023-04-07T14:43:25;100467.38;;;13.71;74.00
10060;BME280;5069;49.306;8.636;2023-04-07T14:46:28;100461.06;;;13.54;74.05
10060;BME280;5069;49.306;8.636;2023-04-07T14:49:29;100465.44;;;13.55;74.94
10060;BME280;5069;49.306;8.636;2023-04-07T14:52:30;100467.19;;;13.75;73.47
10060;BME280;5069;49.306;8.636;2023-04-07T14:55:32;100467.56;;;13.47;75.25
10060;BME280;5069;49.306;8.636;2023-04-07T14:58:34;100478.75;;;13.13;76.82
10060;BME280;5069;49.306;8.636;2023-04-07T15:01:37;100473.84;;;12.82;79.43
10060;BME280;5069;49.306;8.636;2023-04-07T15:04:43;100469.44;;;12.61;80.20
10060;BME280;5069;49.306;8.636;2023-04-07T15:07:44;100483.47;;;12.63;81.69
10060;BME280;5069;49.306;8.636;2023-04-07T15:10:48;100483.22;;;12.69;81.72
10060;BME280;5069;49.306;8.636;2023-04-07T15:13:50;100491.44;;;12.83;81.88
10060;BME280;5069;49.306;8.636;2023-04-07T15:16:51;100490.78;;;12.78;81.19
10060;BME280;5069;49.306;8.636;2023-04-07T15:19:53;100485.19;;;12.64;80.02
10060;BME280;5069;49.306;8.636;2023-04-07T15:22:55;100491.88;;;12.73;78.33
10060;BME280;5069;49.306;8.636;2023-04-07T15:25:56;100491.09;;;12.49;79.87
10060;BME280;5069;49.306;8.636;2023-04-07T15:28:58;100487.38;;;12.53;80.49
10060;BME280;5069;49.306;8.636;2023-04-07T15:31:59;100492.56;;;12.56;78.92
10060;BME280;5069;49.306;8.636;2023-04-07T15:35:01;100495.16;;;12.58;78.24
10060;BME280;5069;49.306;8.636;2023-04-07T15:38:02;100502.38;;;12.31;76.67
10060;BME280;5069;49.306;8.636;2023-04-07T15:41:04;100495.72;;;12.21;78.61
10060;BME280;5069;49.306;8.636;2023-04-07T15:44:06;100494.38;;;12.11;80.21
10060;BME280;5069;49.306;8.636;2023-04-07T15:47:07;100491.78;;;12.09;81.22
10060;BME280;5069;49.306;8.636;2023-04-07T15:50:09;100497.69;;;12.16;82.95
10060;BME280;5069;49.306;8.636;2023-04-07T15:53:11;100503.78;;;12.18;82.72
10060;BME280;5069;49.306;8.636;2023-04-07T15:56:13;100506.59;;;12.58;81.21
10060;BME280;5069;49.306;8.636;2023-04-07T15:59:14;100504.00;;;12.78;79.59
10060;BME280;5069;49.306;8.636;2023-04-07T16:02:16;100507.72;;;13.16;78.40
10060;BME280;5069;49.306;8.636;2023-04-07T16:05:18;100508.41;;;13.42;76.74
10060;BME280;5069;49.306;8.636;2023-04-07T16:08:19;100512.91;;;12.98;74.61
10060;BME280;5069;49.306;8.636;2023-04-07T16:11:20;100512.25;;;12.93;76.46
10060;BME280;5069;49.306;8.636;2023-04-07T16:14:22;100513.22;;;12.90;76.82
10060;BME280;5069;49.306;8.636;2023-04-07T16:17:23;100519.63;;;12.84;79.11
10060;BME280;5069;49.306;8.636;2023-04-07T16:20:25;100515.91;;;12.89;78.95
10060;BME280;5069;49.306;8.636;2023-04-07T16:23:26;100529.88;;;12.70;80.59
10060;BME280;5069;49.306;8.636;2023-04-07T16:26:28;100529.41;;;12.61;81.28